sensor_id;sensor_type;location;lat;lon;timestamp;P1;durP1;ratioP1;P2;durP2;ratioP2
42846;SDS011;75159;49.916;14.536;2024-03-08T00:03:27;27.10;;;14.13;;
42846;SDS011;75159;49.916;14.536;2024-03-08T00:26:26;30.50;;;15.55;;
42846;SDS011;75159;49.916;14.536;2024-03-08T00:36:47;27.45;;;15.07;;
42846;SDS011;75159;49.916;14.536;2024-03-08T00:47:09;27.25;;;12.88;;
42846;SDS011;75159;49.916;14.536;2024-03-08T00:57:31;27.00;;;14.48;;
42846;SDS011;75159;49.916;14.536;2024-03-08T01:07:53;25.35;;;13.13;;
42846;SDS011;75159;49.916;14.536;2024-03-08T01:18:14;27.58;;;13.77;;
42846;SDS011;75159;49.916;14.536;2024-03-08T01:28:35;24.65;;;14.02;;
42846;SDS011;75159;49.916;14.536;2024-03-08T01:38:55;24.40;;;12.95;;
42846;SDS011;75159;49.916;14.536;2024-03-08T01:49:16;24.60;;;11.80;;
42846;SDS011;75159;49.916;14.536;2024-03-08T01:59:38;27.35;;;13.57;;
42846;SDS011;75159;49.916;14.536;2024-03-08T02:10:01;26.42;;;12.48;;
42846;SDS011;75159;49.916;14.536;2024-03-08T02:20:22;26.35;;;13.80;;
42846;SDS011;75159;49.916;14.536;2024-03-08T02:30:43;22.88;;;12.15;;
42846;SDS011;75159;49.916;14.536;2024-03-08T02:41:04;26.42;;;13.15;;
42846;SDS011;75159;49.916;14.536;2024-03-08T02:51:24;24.35;;;12.45;;
42846;SDS011;75159;49.916;14.536;2024-03-08T03:01:47;17.15;;;9.77;;
42846;SDS011;75159;49.916;14.536;2024-03-08T03:12:07;17.95;;;9.52;;
42846;SDS011;75159;49.916;14.536;2024-03-08T03:22:29;16.83;;;9.27;;
42846;SDS011;75159;49.916;14.536;2024-03-08T03:32:52;19.55;;;9.75;;
42846;SDS011;75159;49.916;14.536;2024-03-08T03:43:15;23.30;;;9.98;;
42846;SDS011;75159;49.916;14.536;2024-03-08T03:53:36;17.85;;;9.93;;
42846;SDS011;75159;49.916;14.536;2024-03-08T04:03:57;20.02;;;9.65;;
42846;SDS011;75159;49.916;14.536;2024-03-08T04:14:18;16.63;;;9.00;;
42846;SDS011;75159;49.916;14.536;2024-03-08T04:24:39;24.85;;;11.93;;
42846;SDS011;75159;49.916;14.536;2024-03-08T04:35:01;25.35;;;12.10;;
42846;SDS011;75159;49.916;14.536;2024-03-08T04:45:22;23.85;;;12.20;;
42846;SDS011;75159;49.916;14.536;2024-03-08T04:55:43;24.38;;;11.60;;
42846;SDS011;75159;49.916;14.536;2024-03-08T05:06:04;23.88;;;11.27;;
42846;SDS011;75159;49.916;14.536;2024-03-08T05:16:25;24.13;;;11.23;;
42846;SDS011;75159;49.916;14.536;2024-03-08T05:26:46;22.40;;;11.60;;
42846;SDS011;75159;49.916;14.536;2024-03-08T05:37:08;24.08;;;12.35;;
42846;SDS011;75159;49.916;14.536;2024-03-08T05:47:29;28.17;;;13.55;;
42846;SDS011;75159;49.916;14.536;2024-03-08T05:57:51;24.75;;;12.95;;
42846;SDS011;75159;49.916;14.536;2024-03-08T06:08:15;28.63;;;13.30;;
42846;SDS011;75159;49.916;14.536;2024-03-08T06:18:36;24.70;;;12.13;;
42846;SDS011;75159;49.916;14.536;2024-03-08T06:28:57;29.92;;;13.75;;
42846;SDS011;75159;49.916;14.536;2024-03-08T06:39:19;26.42;;;14.10;;
42846;SDS011;75159;49.916;14.536;2024-03-08T06:49:39;32.53;;;15.65;;
42846;SDS011;75159;49.916;14.536;2024-03-08T07:12:38;24.27;;;12.20;;
42846;SDS011;75159;49.916;14.536;2024-03-08T07:22:59;21.55;;;11.85;;
42846;SDS011;75159;49.916;14.536;2024-03-08T07:33:21;23.67;;;11.23;;
42846;SDS011;75159;49.916;14.536;2024-03-08T07:43:43;21.50;;;11.40;;
42846;SDS011;75159;49.916;14.536;2024-03-08T07:54:04;23.27;;;11.43;;
42846;SDS011;75159;49.916;14.536;2024-03-08T08:04:25;21.17;;;10.13;;
42846;SDS011;75159;49.916;14.536;2024-03-08T08:14:47;21.70;;;10.85;;
42846;SDS011;75159;49.916;14.536;2024-03-08T08:25:08;19.33;;;9.73;;
42846;SDS011;75159;49.916;14.536;2024-03-08T08:35:29;18.60;;;9.88;;
42846;SDS011;75159;49.916;14.536;2024-03-08T08:45:50;20.08;;;10.55;;
42846;SDS011;75159;49.916;14.536;2024-03-08T08:56:15;17.58;;;8.95;;
42846;SDS011;75159;49.916;14.536;2024-03-08T09:06:36;20.83;;;10.52;;
42846;SDS011;75159;49.916;14.536;2024-03-08T09:16:57;26.67;;;12.45;;
42846;SDS011;75159;49.916;14.536;2024-03-08T09:27:18;19.30;;;10.32;;
42846;SDS011;75159;49.916;14.536;2024-03-08T09:37:38;15.60;;;8.40;;
42846;SDS011;75159;49.916;14.536;2024-03-08T09:47:59;16.42;;;9.60;;
42846;SDS011;75159;49.916;14.536;2024-03-08T09:58:21;14.60;;;8.45;;
42846;SDS011;75159;49.916;14.536;2024-03-08T10:08:48;19.60;;;8.95;;
42846;SDS011;75159;49.916;14.536;2024-03-08T10:19:09;19.33;;;10.13;;
42846;SDS011;75159;49.916;14.536;2024-03-08T10:29:33;20.23;;;10.13;;
42846;SDS011;75159;49.916;14.536;2024-03-08T10:40:02;15.88;;;8.43;;
42846;SDS011;75159;49.916;14.536;2024-03-08T10:50:31;17.33;;;10.23;;
42846;SDS011;75159;49.916;14.536;2024-03-08T11:00:55;14.43;;;7.75;;
42846;SDS011;75159;49.916;14.536;2024-03-08T11:11:27;18.85;;;8.68;;
42846;SDS011;75159;49.916;14.536;2024-03-08T11:21:59;17.52;;;8.95;;
42846;SDS011;75159;49.916;14.536;2024-03-08T11:32:21;18.25;;;8.63;;
42846;SDS011;75159;49.916;14.536;2024-03-08T11:42:46;17.25;;;6.90;;
42846;SDS011;75159;49.916;14.536;2024-03-08T11:53:12;15.32;;;7.40;;
42846;SDS011;75159;49.916;14.536;2024-03-08T12:03:34;7.85;;;5.47;;
42846;SDS011;75159;49.916;14.536;2024-03-08T12:13:55;9.70;;;5.63;;
42846;SDS011;75159;49.916;14.536;2024-03-08T12:24:18;9.23;;;5.45;;
42846;SDS011;75159;49.916;14.536;2024-03-08T12:34:39;10.52;;;5.03;;
42846;SDS011;75159;49.916;14.536;2024-03-08T12:45:00;8.32;;;5.13;;
42846;SDS011;75159;49.916;14.536;2024-03-08T12:55:23;6.85;;;3.88;;
42846;SDS011;75159;49.916;14.536;2024-03-08T13:05:44;8.27;;;4.70;;
42846;SDS011;75159;49.916;14.536;2024-03-08T13:16:06;5.50;;;3.78;;
42846;SDS011;75159;49.916;14.536;2024-03-08T13:26:29;8.15;;;4.05;;
42846;SDS011;75159;49.916;14.536;2024-03-08T13:36:54;6.78;;;4.32;;
42846;SDS011;75159;49.916;14.536;2024-03-08T13:47:20;8.30;;;5.22;;
42846;SDS011;75159;49.916;14.536;2024-03-08T13:57:41;7.85;;;5.10;;
42846;SDS011;75159;49.916;14.536;2024-03-08T14:08:02;7.22;;;4.53;;
42846;SDS011;75159;49.916;14.536;2024-03-08T14:18:23;9.35;;;5.50;;
42846;SDS011;75159;49.916;14.536;2024-03-08T14:28:45;12.60;;;6.20;;
42846;SDS011;75159;49.916;14.536;2024-03-08T14:39:06;9.85;;;5.60;;
42846;SDS011;75159;49.916;14.536;2024-03-08T14:49:28;10.25;;;5.55;;
42846;SDS011;75159;49.916;14.536;2024-03-08T14:59:49;11.73;;;5.72;;
42846;SDS011;75159;49.916;14.536;2024-03-08T15:10:10;11.18;;;5.40;;
42846;SDS011;75159;49.916;14.536;2024-03-08T15:20:34;11.50;;;5.57;;
42846;SDS011;75159;49.916;14.536;2024-03-08T15:30:55;9.75;;;5.00;;
42846;SDS011;75159;49.916;14.536;2024-03-08T15:41:25;12.63;;;6.30;;
42846;SDS011;75159;49.916;14.536;2024-03-08T15:51:50;14.70;;;6.95;;
42846;SDS011;75159;49.916;14.536;2024-03-08T16:02:11;16.08;;;7.95;;
42846;SDS011;75159;49.916;14.536;2024-03-08T16:12:35;15.13;;;6.65;;
42846;SDS011;75159;49.916;14.536;2024-03-08T16:23:03;12.75;;;6.35;;
42846;SDS011;75159;49.916;14.536;2024-03-08T16:33:25;14.82;;;7.10;;
42846;SDS011;75159;49.916;14.536;2024-03-08T16:43:45;14.02;;;8.05;;
42846;SDS011;75159;49.916;14.536;2024-03-08T16:54:06;14.63;;;7.88;;
42846;SDS011;75159;49.916;14.536;2024-03-08T17:04:28;18.92;;;8.57;;
42846;SDS011;75159;49.916;14.536;2024-03-08T17:14:49;14.07;;;7.60;;
42846;SDS011;75159;49.916;14.536;2024-03-08T17:25:10;14.70;;;7.30;;
42846;SDS011;75159;49.916;14.536;2024-03-08T17:35:36;15.43;;;8.23;;
42846;SDS011;75159;49.916;14.536;2024-03-08T17:45:59;17.02;;;8.73;;
42846;SDS011;75159;49.916;14.536;2024-03-08T17:56:20;13.32;;;6.55;;
42846;SDS011;75159;49.916;14.536;2024-03-08T18:06:40;14.98;;;7.38;;
42846;SDS011;75159;49.916;14.536;2024-03-08T18:17:01;14.82;;;7.97;;
42846;SDS011;75159;49.916;14.536;2024-03-08T18:27:23;13.73;;;6.93;;
42846;SDS011;75159;49.916;14.536;2024-03-08T18:37:48;14.25;;;7.25;;
42846;SDS011;75159;49.916;14.536;2024-03-08T18:48:10;12.00;;;6.55;;
42846;SDS011;75159;49.916;14.536;2024-03-08T18:58:32;22.80;;;9.80;;
42846;SDS011;75159;49.916;14.536;2024-03-08T19:09:05;15.52;;;8.25;;
42846;SDS011;75159;49.916;14.536;2024-03-08T19:19:30;13.68;;;8.05;;
42846;SDS011;75159;49.916;14.536;2024-03-08T19:29:55;14.02;;;8.13;;
42846;SDS011;75159;49.916;14.536;2024-03-08T19:40:23;14.30;;;7.63;;
42846;SDS011;75159;49.916;14.536;2024-03-08T19:50:46;14.93;;;7.37;;
42846;SDS011;75159;49.916;14.536;2024-03-08T20:01:08;16.77;;;9.27;;
42846;SDS011;75159;49.916;14.536;2024-03-08T20:11:30;16.25;;;8.27;;
42846;SDS011;75159;49.916;14.536;2024-03-08T20:21:52;18.02;;;7.63;;
42846;SDS011;75159;49.916;14.536;2024-03-08T20:32:14;15.45;;;7.63;;
42846;SDS011;75159;49.916;14.536;2024-03-08T20:42:37;16.92;;;7.93;;
42846;SDS011;75159;49.916;14.536;2024-03-08T20:53:05;13.57;;;6.85;;
42846;SDS011;75159;49.916;14.536;2024-03-08T21:03:33;14.90;;;8.35;;
42846;SDS011;75159;49.916;14.536;2024-03-08T21:13:55;13.93;;;6.68;;
42846;SDS011;75159;49.916;14.536;2024-03-08T21:24:16;13.75;;;7.07;;
42846;SDS011;75159;49.916;14.536;2024-03-08T21:34:41;14.98;;;8.43;;
42846;SDS011;75159;49.916;14.536;2024-03-08T21:45:02;11.88;;;6.53;;
42846;SDS011;75159;49.916;14.536;2024-03-08T21:55:24;12.85;;;6.40;;
42846;SDS011;75159;49.916;14.536;2024-03-08T22:05:46;12.10;;;6.55;;
42846;SDS011;75159;49.916;14.536;2024-03-08T22:16:07;12.35;;;5.95;;
42846;SDS011;75159;49.916;14.536;2024-03-08T22:26:31;13.35;;;7.07;;
42846;SDS011;75159;49.916;14.536;2024-03-08T22:36:55;12.20;;;6.30;;
42846;SDS011;75159;49.916;14.536;2024-03-08T22:47:16;11.10;;;5.90;;
42846;SDS011;75159;49.916;14.536;2024-03-08T22:57:37;9.73;;;6.18;;
42846;SDS011;75159;49.916;14.536;2024-03-08T23:08:00;11.73;;;6.18;;
42846;SDS011;75159;49.916;14.536;2024-03-08T23:18:24;9.93;;;5.90;;
42846;SDS011;75159;49.916;14.536;2024-03-08T23:28:47;10.82;;;6.47;;
42846;SDS011;75159;49.916;14.536;2024-03-08T23:39:08;12.65;;;6.60;;
42846;SDS011;75159;49.916;14.536;2024-03-08T23:49:32;13.25;;;7.03;;
42846;SDS011;75159;49.916;14.536;2024-03-08T23:59:53;12.88;;;6.70;;
